createdAt,value
2023-03-11T00:00:22.790Z,64.80
2023-03-11T00:02:51.938Z,64.80
2023-03-11T00:05:21.230Z,64.60
2023-03-11T00:07:49.281Z,64.80
2023-03-11T00:10:17.882Z,65.30
2023-03-11T00:12:44.566Z,65.50
2023-03-11T00:15:12.162Z,65.40
2023-03-11T00:17:39.149Z,65.30
2023-03-11T00:20:08.019Z,65.20
2023-03-11T00:22:35.148Z,65.50
2023-03-11T00:25:03.476Z,65.60
2023-03-11T00:27:30.260Z,65.60
2023-03-11T00:29:56.950Z,65.50
2023-03-11T00:32:24.066Z,65.40
2023-03-11T00:34:51.086Z,65.20
2023-03-11T00:37:18.040Z,65.00
2023-03-11T00:39:45.297Z,64.90
2023-03-11T00:42:13.777Z,64.80
2023-03-11T00:44:43.535Z,64.80
2023-03-11T00:47:11.740Z,64.90
2023-03-11T00:49:39.377Z,64.80
2023-03-11T00:52:06.442Z,64.70
2023-03-11T00:54:33.325Z,64.70
2023-03-11T00:57:00.225Z,64.80
2023-03-11T00:59:29.101Z,65.10
2023-03-11T01:01:55.956Z,65.10
2023-03-11T01:04:22.805Z,65.40
2023-03-11T01:06:49.671Z,65.40
2023-03-11T01:09:16.557Z,65.50
2023-03-11T01:11:43.449Z,65.60
2023-03-11T01:14:10.303Z,65.40
2023-03-11T01:16:38.747Z,65.50
2023-03-11T01:19:12.797Z,65.60
2023-03-11T01:21:40.784Z,65.80
2023-03-11T01:24:10.368Z,65.70
2023-03-11T01:26:37.311Z,65.60
2023-03-11T01:29:06.599Z,65.60
2023-03-11T01:31:38.045Z,65.90
2023-03-11T01:34:11.288Z,65.70
2023-03-11T01:36:38.381Z,65.70
2023-03-11T01:39:07.829Z,65.80
2023-03-11T01:41:37.239Z,65.70
2023-03-11T01:44:07.412Z,65.90
2023-03-11T01:46:57.302Z,65.70
2023-03-11T01:49:31.146Z,65.90
2023-03-11T01:52:06.381Z,65.30
2023-03-11T01:54:37.492Z,65.50
2023-03-11T01:57:14.014Z,65.60
2023-03-11T01:59:50.840Z,65.80
2023-03-11T02:02:23.171Z,65.90
2023-03-11T02:04:53.554Z,65.80
2023-03-11T02:07:24.947Z,65.70
2023-03-11T02:10:02.626Z,66.00
2023-03-11T02:12:37.908Z,65.10
2023-03-11T02:17:57.145Z,65.70
2023-03-11T02:20:38.041Z,65.80
2023-03-11T02:23:15.091Z,65.70
2023-03-11T02:25:57.444Z,65.80
2023-03-11T02:28:32.366Z,65.60
2023-03-11T02:31:02.927Z,65.90
2023-03-11T02:33:35.034Z,65.70
2023-03-11T02:36:04.685Z,65.70
2023-03-11T02:38:40.304Z,65.70
2023-03-11T02:41:11.339Z,65.30
2023-03-11T02:43:46.711Z,65.70
2023-03-11T02:46:18.154Z,65.40
2023-03-11T02:48:53.267Z,65.10
2023-03-11T02:51:21.061Z,65.30
2023-03-11T02:53:52.324Z,65.30
2023-03-11T02:56:23.167Z,65.00
2023-03-11T02:58:56.405Z,64.80
2023-03-11T03:01:23.984Z,64.90
2023-03-11T03:03:51.217Z,64.70
2023-03-11T03:06:23.690Z,64.70
2023-03-11T03:08:50.979Z,64.50
2023-03-11T03:11:17.945Z,64.30
2023-03-11T03:13:45.104Z,64.20
2023-03-11T03:16:22.628Z,64.20
2023-03-11T03:18:51.451Z,64.10
2023-03-11T03:21:20.770Z,64.40
2023-03-11T03:23:47.895Z,64.20
2023-03-11T03:26:15.227Z,64.10
2023-03-11T03:28:44.523Z,64.10
2023-03-11T03:31:12.345Z,64.30
2023-03-11T03:33:41.022Z,63.80
2023-03-11T03:36:10.250Z,63.80
2023-03-11T03:38:40.016Z,63.90
2023-03-11T03:41:07.895Z,64.50
2023-03-11T03:43:35.118Z,64.10
2023-03-11T03:46:04.303Z,64.10
2023-03-11T03:48:34.064Z,63.70
2023-03-11T03:51:05.444Z,63.60
2023-03-11T03:53:34.663Z,63.80
2023-03-11T03:56:04.008Z,63.70
2023-03-11T03:58:30.896Z,63.70
2023-03-11T04:01:00.288Z,63.30
2023-03-11T04:03:28.953Z,63.10
2023-03-11T04:06:08.070Z,63.00
2023-03-11T04:08:35.067Z,62.70
2023-03-11T04:11:02.294Z,63.00
2023-03-11T04:13:29.078Z,62.90
2023-03-11T04:15:56.053Z,62.70
2023-03-11T04:18:23.219Z,62.40
2023-03-11T04:20:50.606Z,62.40
2023-03-11T04:23:21.720Z,62.40
2023-03-11T04:25:48.803Z,62.20
2023-03-11T04:28:15.951Z,62.40
2023-03-11T04:30:42.792Z,62.50
2023-03-11T04:33:09.634Z,62.40
2023-03-11T04:35:38.045Z,62.40
2023-03-11T04:38:04.958Z,62.50
2023-03-11T04:40:33.339Z,62.60
2023-03-11T04:43:00.431Z,62.20
2023-03-11T04:45:29.985Z,62.70
2023-03-11T04:47:56.751Z,61.80
2023-03-11T04:50:26.950Z,62.00
2023-03-11T04:52:54.057Z,62.00
2023-03-11T04:55:20.815Z,62.20
2023-03-11T04:57:49.154Z,62.00
2023-03-11T05:00:17.019Z,61.70
2023-03-11T05:02:43.898Z,62.00
2023-03-11T05:05:10.686Z,61.80
2023-03-11T05:07:37.762Z,61.80
2023-03-11T05:10:05.606Z,61.60
2023-03-11T05:12:32.482Z,61.70
2023-03-11T05:15:00.751Z,62.00
2023-03-11T05:17:27.506Z,61.90
2023-03-11T05:19:54.451Z,61.60
2023-03-11T05:22:22.045Z,61.50
2023-03-11T05:24:49.555Z,61.40
2023-03-11T05:27:17.300Z,61.40
2023-03-11T05:29:44.371Z,61.10
2023-03-11T05:32:13.156Z,61.00
2023-03-11T05:34:40.596Z,61.20
2023-03-11T05:37:07.738Z,61.10
2023-03-11T05:39:34.764Z,61.10
2023-03-11T05:42:01.495Z,61.10
2023-03-11T05:44:28.293Z,61.10
2023-03-11T05:46:55.082Z,61.00
2023-03-11T05:49:23.329Z,60.90
2023-03-11T05:51:50.409Z,60.90
2023-03-11T05:54:17.666Z,60.90
2023-03-11T05:56:45.506Z,60.40
2023-03-11T05:59:15.863Z,60.60
2023-03-11T06:01:44.024Z,60.50
2023-03-11T06:04:11.445Z,60.60
2023-03-11T06:06:40.905Z,60.30
2023-03-11T06:09:11.064Z,60.40
2023-03-11T06:11:37.871Z,60.20
2023-03-11T06:14:04.593Z,60.40
2023-03-11T06:16:31.348Z,60.60
2023-03-11T06:18:58.130Z,60.80
2023-03-11T06:21:24.995Z,60.90
2023-03-11T06:23:53.336Z,61.00
2023-03-11T06:26:21.529Z,61.00
2023-03-11T06:28:48.991Z,61.00
2023-03-11T06:31:17.774Z,60.90
2023-03-11T06:33:44.525Z,60.90
2023-03-11T06:36:13.524Z,60.90
2023-03-11T06:38:40.313Z,60.70
2023-03-11T06:41:08.834Z,60.60
2023-03-11T06:43:36.374Z,60.50
2023-03-11T06:46:09.156Z,60.40
2023-03-11T06:48:35.922Z,60.40
2023-03-11T06:51:02.658Z,60.30
2023-03-11T06:53:30.379Z,60.40
2023-03-11T06:56:01.474Z,60.50
2023-03-11T06:58:30.564Z,60.60
2023-03-11T07:01:00.790Z,60.50
2023-03-11T07:03:27.653Z,60.50
2023-03-11T07:05:54.439Z,60.40
2023-03-11T07:08:21.202Z,60.10
2023-03-11T07:10:58.973Z,60.30
2023-03-11T07:13:25.723Z,60.50
2023-03-11T07:16:01.554Z,60.60
2023-03-11T07:18:28.418Z,60.50
2023-03-11T07:20:55.073Z,61.30
2023-03-11T07:23:21.806Z,60.60
2023-03-11T07:25:48.553Z,61.30
2023-03-11T07:28:15.344Z,60.40
2023-03-11T07:30:45.091Z,60.20
2023-03-11T07:33:13.288Z,60.00
2023-03-11T07:35:40.376Z,60.00
2023-03-11T07:38:07.178Z,60.00
2023-03-11T07:40:33.904Z,60.10
2023-03-11T07:43:00.601Z,60.00
2023-03-11T07:45:27.389Z,59.80
2023-03-11T07:47:54.076Z,59.60
2023-03-11T07:50:22.155Z,59.40
2023-03-11T07:52:49.052Z,59.40
2023-03-11T07:55:15.944Z,59.50
2023-03-11T07:57:42.679Z,59.70
2023-03-11T08:00:10.675Z,59.80
2023-03-11T08:02:37.385Z,59.80
2023-03-11T08:05:04.504Z,59.90
2023-03-11T08:07:33.246Z,60.00
2023-03-11T08:10:00.241Z,59.90
2023-03-11T08:12:26.936Z,59.70
2023-03-11T08:14:53.720Z,59.80
2023-03-11T08:17:20.454Z,60.70
2023-03-11T08:19:49.226Z,59.90
2023-03-11T08:22:16.060Z,59.80
2023-03-11T08:24:44.109Z,59.80
2023-03-11T08:27:10.769Z,59.80
2023-03-11T08:29:37.447Z,59.80
2023-03-11T08:32:04.628Z,59.80
2023-03-11T08:34:31.328Z,59.60
2023-03-11T08:36:58.063Z,59.30
2023-03-11T08:39:24.676Z,59.10
2023-03-11T08:41:52.706Z,58.90
2023-03-11T08:44:19.380Z,58.70
2023-03-11T08:46:46.381Z,58.80
2023-03-11T08:49:13.081Z,58.80
2023-03-11T08:51:39.776Z,58.80
2023-03-11T08:54:06.923Z,58.80
2023-03-11T08:56:33.695Z,58.60
2023-03-11T08:59:01.665Z,58.80
2023-03-11T09:01:28.339Z,58.70
2023-03-11T09:03:55.565Z,58.70
2023-03-11T09:06:22.551Z,58.50
2023-03-11T09:08:49.693Z,58.50
2023-03-11T09:11:17.400Z,58.70
2023-03-11T09:13:44.550Z,58.80
2023-03-11T09:16:15.803Z,58.80
2023-03-11T09:18:42.808Z,58.80
2023-03-11T09:21:09.749Z,58.70
2023-03-11T09:23:36.484Z,58.20
2023-03-11T09:26:03.305Z,58.20
2023-03-11T09:28:30.124Z,57.90
2023-03-11T09:30:56.932Z,58.30
2023-03-11T09:33:27.784Z,58.70
2023-03-11T09:35:54.601Z,59.00
2023-03-11T09:38:21.357Z,59.00
2023-03-11T09:41:04.505Z,58.50
2023-03-11T09:43:58.637Z,58.60
2023-03-11T09:46:44.278Z,58.60
2023-03-11T09:49:22.915Z,58.70
2023-03-11T09:51:57.598Z,58.80
2023-03-11T09:54:24.335Z,58.80
2023-03-11T09:56:51.421Z,58.70
2023-03-11T09:59:23.243Z,58.30
2023-03-11T10:01:51.101Z,58.80
2023-03-11T10:04:24.798Z,59.10
2023-03-11T10:06:51.589Z,58.00
2023-03-11T10:09:36.550Z,58.20
2023-03-11T10:12:17.624Z,57.90
2023-03-11T10:15:02.147Z,57.00
2023-03-11T10:17:43.854Z,56.60
2023-03-11T10:20:19.263Z,56.30
2023-03-11T10:22:55.416Z,55.80
2023-03-11T10:25:25.244Z,56.40
2023-03-11T10:27:56.979Z,56.60
2023-03-11T10:30:29.619Z,56.10
2023-03-11T10:33:00.834Z,56.50
2023-03-11T10:35:36.508Z,56.30
2023-03-11T10:38:11.756Z,56.50
2023-03-11T10:40:41.214Z,56.10
2023-03-11T10:43:14.190Z,56.30
2023-03-11T10:45:43.123Z,55.80
2023-03-11T10:48:11.043Z,55.70
2023-03-11T10:50:46.516Z,56.30
2023-03-11T10:53:16.807Z,56.50
2023-03-11T10:55:47.209Z,55.80
2023-03-11T10:58:16.078Z,56.90
2023-03-11T11:00:42.912Z,57.00
2023-03-11T11:03:20.032Z,56.30
2023-03-11T11:05:57.502Z,54.80
2023-03-11T11:08:24.223Z,55.20
2023-03-11T11:10:52.635Z,54.50
2023-03-11T11:13:22.120Z,53.20
2023-03-11T11:15:55.582Z,52.90
2023-03-11T11:18:25.177Z,54.00
2023-03-11T11:21:00.514Z,54.50
2023-03-11T11:23:31.785Z,53.90
2023-03-11T11:26:00.682Z,54.50
2023-03-11T11:28:27.681Z,55.50
2023-03-11T11:30:57.181Z,55.90
2023-03-11T11:33:27.247Z,56.40
2023-03-11T11:35:57.759Z,56.10
2023-03-11T11:38:26.411Z,56.30
2023-03-11T11:40:55.101Z,56.00
2023-03-11T11:43:25.872Z,55.90
2023-03-11T11:45:56.960Z,56.20
2023-03-11T11:48:29.497Z,55.90
2023-03-11T11:51:00.036Z,56.20
2023-03-11T11:53:34.620Z,55.90
2023-03-11T11:56:02.240Z,56.00
2023-03-11T11:58:30.391Z,54.90
2023-03-11T12:01:07.573Z,54.20
2023-03-11T12:03:56.248Z,55.00
2023-03-11T12:06:31.373Z,53.20
2023-03-11T12:09:06.085Z,53.50
2023-03-11T12:11:41.525Z,52.40
2023-03-11T12:14:16.192Z,52.30
2023-03-11T12:16:50.658Z,52.90
2023-03-11T12:19:25.141Z,54.00
2023-03-11T12:22:15.511Z,54.30
2023-03-11T12:25:03.880Z,52.20
2023-03-11T12:27:34.859Z,51.60
2023-03-11T12:30:04.889Z,50.10
2023-03-11T12:32:36.578Z,50.40
2023-03-11T12:35:10.343Z,53.10
2023-03-11T12:37:38.407Z,52.40
2023-03-11T12:40:38.847Z,52.60
2023-03-11T12:43:22.218Z,51.40
2023-03-11T12:45:50.822Z,52.40
2023-03-11T12:48:35.513Z,52.00
2023-03-11T12:51:02.454Z,53.40
2023-03-11T12:53:45.264Z,50.80
2023-03-11T12:56:23.697Z,50.70
2023-03-11T12:59:24.463Z,50.50
2023-03-11T13:01:57.822Z,50.50
2023-03-11T13:04:39.532Z,50.90
2023-03-11T13:07:39.710Z,50.70
2023-03-11T13:10:18.153Z,51.70
2023-03-11T13:12:46.212Z,50.50
2023-03-11T13:15:33.157Z,51.30
2023-03-11T13:18:01.303Z,48.70
2023-03-11T13:20:51.428Z,49.10
2023-03-11T13:23:27.683Z,50.10
2023-03-11T13:26:28.706Z,50.90
2023-03-11T13:29:15.055Z,50.80
2023-03-11T13:31:50.926Z,50.90
2023-03-11T13:34:23.380Z,48.40
2023-03-11T13:37:07.495Z,50.30
2023-03-11T13:39:45.485Z,53.20
2023-03-11T13:42:26.401Z,54.40
2023-03-11T13:44:54.258Z,53.90
2023-03-11T13:47:22.455Z,51.60
2023-03-11T13:49:53.733Z,52.20
2023-03-11T13:52:26.533Z,49.80
2023-03-11T13:54:59.232Z,50.10
2023-03-11T13:57:29.545Z,50.80
2023-03-11T13:59:57.649Z,49.90
2023-03-11T14:02:26.672Z,50.90
2023-03-11T14:04:57.401Z,50.90
2023-03-11T14:07:27.971Z,50.90
2023-03-11T14:10:26.117Z,49.40
2023-03-11T14:13:05.278Z,50.50
2023-03-11T14:15:42.199Z,50.90
2023-03-11T14:18:42.604Z,50.20
2023-03-11T14:21:15.332Z,51.40
2023-03-11T14:23:44.921Z,51.20
2023-03-11T14:26:15.093Z,52.20
2023-03-11T14:28:45.395Z,51.40
2023-03-11T14:31:23.255Z,52.70
2023-03-11T14:33:55.591Z,52.30
2023-03-11T14:36:22.307Z,52.20
2023-03-11T14:38:48.959Z,51.30
2023-03-11T14:41:16.002Z,52.90
2023-03-11T14:43:48.203Z,52.50
2023-03-11T14:46:21.847Z,51.00
2023-03-11T14:48:48.652Z,54.10
2023-03-11T14:51:19.898Z,51.90
2023-03-11T14:53:52.526Z,52.10
2023-03-11T14:56:21.746Z,52.30
2023-03-11T14:59:07.412Z,52.50
2023-03-11T15:01:38.062Z,52.70
2023-03-11T15:04:08.226Z,53.50
2023-03-11T15:06:35.703Z,53.40
2023-03-11T15:09:06.346Z,53.40
2023-03-11T15:11:44.499Z,52.20
2023-03-11T15:14:20.135Z,52.80
2023-03-11T15:16:48.209Z,52.30
2023-03-11T15:19:24.009Z,53.00
2023-03-11T15:21:51.894Z,51.30
2023-03-11T15:24:20.973Z,50.00
2023-03-11T15:26:54.760Z,51.60
2023-03-11T15:29:22.985Z,50.40
2023-03-11T15:31:49.740Z,50.70
2023-03-11T15:34:25.595Z,51.00
2023-03-11T15:37:20.013Z,49.30
2023-03-11T15:39:48.831Z,50.60
2023-03-11T15:42:20.189Z,50.50
2023-03-11T15:45:01.288Z,51.10
2023-03-11T15:47:28.057Z,50.90
2023-03-11T15:49:54.754Z,49.80
2023-03-11T15:52:21.540Z,49.20
2023-03-11T15:54:55.438Z,51.10
2023-03-11T15:57:25.391Z,50.70
2023-03-11T15:59:54.866Z,52.00
2023-03-11T16:02:23.706Z,49.30
2023-03-11T16:04:50.588Z,49.10
2023-03-11T16:07:21.784Z,49.60
2023-03-11T16:09:56.048Z,48.20
2023-03-11T16:12:23.819Z,48.00
2023-03-11T16:14:50.766Z,49.30
2023-03-11T16:17:18.770Z,48.00
2023-03-11T16:19:47.386Z,47.20
2023-03-11T16:22:18.552Z,47.70
2023-03-11T16:24:45.852Z,48.50
2023-03-11T16:27:15.105Z,48.80
2023-03-11T16:29:41.874Z,48.40
2023-03-11T16:32:08.700Z,48.30
2023-03-11T16:34:36.815Z,48.70
2023-03-11T16:37:04.176Z,49.30
2023-03-11T16:39:30.848Z,49.20
2023-03-11T16:41:57.536Z,48.80
2023-03-11T16:44:24.247Z,48.60
2023-03-11T16:46:50.992Z,48.70
2023-03-11T16:49:17.680Z,48.90
2023-03-11T16:51:45.712Z,49.30
2023-03-11T16:54:14.641Z,49.40
2023-03-11T16:56:41.865Z,48.90
2023-03-11T16:59:08.989Z,49.10
2023-03-11T17:01:35.770Z,49.10
2023-03-11T17:04:02.490Z,49.10
2023-03-11T17:06:29.165Z,49.50
2023-03-11T17:08:57.518Z,49.70
2023-03-11T17:11:24.789Z,49.90
2023-03-11T17:13:51.557Z,50.40
2023-03-11T17:16:18.304Z,50.40
2023-03-11T17:18:44.991Z,49.70
2023-03-11T17:21:14.065Z,49.80
2023-03-11T17:23:41.245Z,49.20
2023-03-11T17:26:10.584Z,49.80
2023-03-11T17:28:37.996Z,49.70
2023-03-11T17:31:04.830Z,50.00
2023-03-11T17:33:31.560Z,50.60
2023-03-11T17:36:01.592Z,50.40
2023-03-11T17:38:28.301Z,50.50
2023-03-11T17:40:56.254Z,51.00
2023-03-11T17:43:26.066Z,51.10
2023-03-11T17:45:55.213Z,51.30
2023-03-11T17:48:22.026Z,51.40
2023-03-11T17:50:51.550Z,51.20
2023-03-11T17:53:18.246Z,50.80
2023-03-11T17:55:44.977Z,50.60
2023-03-11T17:58:11.689Z,51.10
2023-03-11T18:00:39.767Z,51.10
2023-03-11T18:03:06.438Z,51.30
2023-03-11T18:05:33.182Z,51.50
2023-03-11T18:07:59.830Z,51.10
2023-03-11T18:10:26.516Z,51.00
2023-03-11T18:12:53.151Z,50.80
2023-03-11T18:15:20.070Z,50.90
2023-03-11T18:17:48.636Z,50.60
2023-03-11T18:20:15.644Z,50.80
2023-03-11T18:22:46.135Z,50.80
2023-03-11T18:25:13.282Z,50.80
2023-03-11T18:27:40.935Z,50.80
2023-03-11T18:30:09.080Z,51.10
2023-03-11T18:32:35.806Z,50.70
2023-03-11T18:35:04.372Z,50.90
2023-03-11T18:37:32.548Z,51.20
2023-03-11T18:39:59.186Z,51.40
2023-03-11T18:42:25.844Z,51.20
2023-03-11T18:44:52.532Z,50.80
2023-03-11T18:47:19.223Z,51.10
2023-03-11T18:49:45.858Z,51.00
2023-03-11T18:52:13.887Z,51.10
2023-03-11T18:54:40.791Z,50.90
2023-03-11T18:57:07.555Z,51.30
2023-03-11T18:59:34.268Z,51.10
2023-03-11T19:02:01.060Z,50.90
2023-03-11T19:04:27.723Z,51.30
2023-03-11T19:06:54.519Z,51.20
2023-03-11T19:09:22.496Z,51.20
2023-03-11T19:11:49.796Z,51.50
2023-03-11T19:14:16.432Z,51.70
2023-03-11T19:16:43.171Z,51.90
2023-03-11T19:19:11.969Z,51.80
2023-03-11T19:21:38.758Z,51.80
2023-03-11T19:24:05.752Z,51.70
2023-03-11T19:26:44.184Z,51.90
2023-03-11T19:29:12.074Z,52.00
2023-03-11T19:31:38.718Z,51.80
2023-03-11T19:34:05.628Z,52.00
2023-03-11T19:36:32.322Z,52.00
2023-03-11T19:38:58.970Z,52.00
2023-03-11T19:41:25.618Z,52.00
2023-03-11T19:43:53.643Z,52.20
2023-03-11T19:46:21.584Z,51.90
2023-03-11T19:48:48.302Z,51.80
2023-03-11T19:51:15.112Z,51.90
2023-03-11T19:53:41.833Z,51.90
2023-03-11T19:56:09.577Z,52.10
2023-03-11T19:58:36.719Z,52.10
2023-03-11T20:01:05.193Z,52.00
2023-03-11T20:03:31.893Z,52.00
2023-03-11T20:06:04.711Z,52.10
2023-03-11T20:08:31.432Z,52.20
2023-03-11T20:11:00.928Z,52.30
2023-03-11T20:13:27.706Z,52.00
2023-03-11T20:15:54.457Z,52.20
2023-03-11T20:18:22.533Z,52.20
2023-03-11T20:20:49.205Z,52.10
2023-03-11T20:23:15.863Z,52.10
2023-03-11T20:25:42.589Z,52.10
2023-03-11T20:28:09.691Z,52.00
2023-03-11T20:30:37.805Z,52.20
2023-03-11T20:33:04.723Z,51.90
2023-03-11T20:35:33.084Z,52.10
2023-03-11T20:37:59.975Z,52.30
2023-03-11T20:40:26.776Z,52.30
2023-03-11T20:42:53.487Z,52.00
2023-03-11T20:45:20.119Z,52.30
2023-03-11T20:47:47.148Z,52.20
2023-03-11T20:50:13.917Z,52.10
2023-03-11T20:52:41.952Z,52.40
2023-03-11T20:55:10.057Z,52.40
2023-03-11T20:57:37.176Z,52.40
2023-03-11T21:00:05.262Z,52.50
2023-03-11T21:02:33.965Z,52.60
2023-03-11T21:05:00.785Z,52.60
2023-03-11T21:07:27.516Z,52.70
2023-03-11T21:09:55.670Z,52.70
2023-03-11T21:12:22.389Z,52.70
2023-03-11T21:14:49.026Z,52.70
2023-03-11T21:17:15.831Z,52.60
2023-03-11T21:19:42.842Z,52.30
2023-03-11T21:22:10.024Z,52.40
2023-03-11T21:24:36.800Z,52.30
2023-03-11T21:27:05.035Z,52.30
2023-03-11T21:29:31.834Z,52.30
2023-03-11T21:31:58.725Z,52.10
2023-03-11T21:34:25.556Z,51.90
2023-03-11T21:36:52.296Z,52.00
2023-03-11T21:39:18.932Z,51.80
2023-03-11T21:41:45.864Z,51.70
2023-03-11T21:44:13.952Z,51.90
2023-03-11T21:46:40.773Z,51.60
2023-03-11T21:49:07.425Z,51.70
2023-03-11T21:51:34.255Z,51.90
2023-03-11T21:54:00.996Z,51.70
2023-03-11T21:56:27.868Z,51.70
2023-03-11T21:58:54.621Z,51.90
2023-03-11T22:01:22.851Z,52.10
2023-03-11T22:03:50.035Z,51.90
2023-03-11T22:06:16.818Z,51.70
2023-03-11T22:08:43.464Z,51.90
2023-03-11T22:11:13.090Z,52.20
2023-03-11T22:13:39.995Z,52.00
2023-03-11T22:16:07.685Z,52.30
2023-03-11T22:18:35.986Z,52.30
2023-03-11T22:21:02.869Z,52.00
2023-03-11T22:23:29.664Z,52.10
2023-03-11T22:25:56.341Z,51.90
2023-03-11T22:28:23.874Z,52.20
2023-03-11T22:30:50.552Z,51.70
2023-03-11T22:33:17.233Z,51.80
2023-03-11T22:35:50.929Z,51.80
2023-03-11T22:38:17.679Z,51.80
2023-03-11T22:40:44.293Z,52.10
2023-03-11T22:43:11.004Z,52.10
2023-03-11T22:45:37.707Z,52.20
2023-03-11T22:48:04.949Z,52.10
2023-03-11T22:50:31.613Z,51.70
2023-03-11T22:52:59.682Z,51.90
2023-03-11T22:55:26.598Z,51.80
2023-03-11T22:57:53.260Z,52.00
2023-03-11T23:00:21.916Z,51.90
2023-03-11T23:02:52.896Z,52.10
2023-03-11T23:05:19.946Z,51.90
2023-03-11T23:07:46.886Z,51.90
2023-03-11T23:10:15.756Z,51.90
2023-03-11T23:12:42.642Z,51.80
2023-03-11T23:15:12.792Z,51.60
2023-03-11T23:17:39.951Z,51.50
2023-03-11T23:20:09.874Z,52.10
2023-03-11T23:22:36.705Z,52.20
2023-03-11T23:25:04.268Z,52.10
2023-03-11T23:27:32.667Z,51.90
2023-03-11T23:29:59.387Z,52.00
2023-03-11T23:32:26.154Z,52.10
2023-03-11T23:34:52.849Z,51.90
2023-03-11T23:37:19.519Z,51.80
2023-03-11T23:39:46.222Z,52.00
2023-03-11T23:42:24.913Z,52.10
2023-03-11T23:44:54.021Z,52.10
2023-03-11T23:47:20.789Z,52.20
2023-03-11T23:49:47.489Z,52.10
2023-03-11T23:52:14.305Z,52.20
2023-03-11T23:54:40.999Z,52.20
2023-03-11T23:57:07.770Z,52.30
2023-03-11T23:59:34.476Z,52.20
